createdAt,value
2019-02-05T00:00:59.488Z,19.23
2019-02-05T00:03:28.685Z,18.05
2019-02-05T00:05:58.917Z,18.48
2019-02-05T00:08:27.782Z,18.83
2019-02-05T00:10:57.236Z,18.95
2019-02-05T00:13:26.119Z,22.25
2019-02-05T00:15:54.937Z,25.57
2019-02-05T00:18:23.764Z,26.15
2019-02-05T00:20:52.736Z,26.57
2019-02-05T00:23:21.647Z,25.25
2019-02-05T00:25:51.614Z,25.17
2019-02-05T00:28:20.457Z,25.02
2019-02-05T00:30:49.455Z,24.55
2019-02-05T00:33:18.320Z,24.05
2019-02-05T00:35:47.187Z,23.50
2019-02-05T00:38:16.392Z,21.77
2019-02-05T00:40:45.693Z,22.07
2019-02-05T00:43:14.739Z,20.70
2019-02-05T00:45:43.972Z,20.00
2019-02-05T00:48:12.822Z,20.17
2019-02-05T00:50:41.716Z,19.77
2019-02-05T00:53:10.608Z,19.73
2019-02-05T00:55:39.821Z,19.80
2019-02-05T00:58:27.906Z,19.67
2019-02-05T01:00:57.165Z,20.12
2019-02-05T01:03:26.236Z,20.48
2019-02-05T01:05:55.246Z,19.82
2019-02-05T01:08:25.163Z,20.37
2019-02-05T01:10:54.412Z,21.57
2019-02-05T01:13:23.554Z,20.57
2019-02-05T01:15:52.733Z,20.20
2019-02-05T01:18:21.642Z,20.00
2019-02-05T01:20:50.876Z,20.97
2019-02-05T01:23:19.937Z,20.77
2019-02-05T01:25:48.983Z,20.70
2019-02-05T01:28:18.001Z,20.57
2019-02-05T01:30:46.791Z,21.48
2019-02-05T01:33:15.660Z,21.75
2019-02-05T01:35:44.908Z,20.77
2019-02-05T01:38:13.798Z,20.60
2019-02-05T01:40:43.078Z,20.88
2019-02-05T01:43:11.968Z,21.02
2019-02-05T01:45:40.844Z,20.35
2019-02-05T01:48:09.824Z,21.40
2019-02-05T01:50:38.826Z,20.97
2019-02-05T01:53:07.690Z,20.92
2019-02-05T01:55:36.940Z,21.37
2019-02-05T01:58:05.916Z,21.75
2019-02-05T02:00:37.893Z,20.77
2019-02-05T02:03:07.689Z,21.90
2019-02-05T02:05:36.963Z,21.23
2019-02-05T02:08:06.126Z,21.80
2019-02-05T02:10:34.934Z,21.48
2019-02-05T02:13:04.265Z,21.12
2019-02-05T02:15:33.218Z,21.20
2019-02-05T02:18:02.778Z,22.87
2019-02-05T02:20:31.648Z,22.48
2019-02-05T02:23:00.625Z,21.90
2019-02-05T02:25:29.603Z,22.10
2019-02-05T02:27:58.524Z,21.50
2019-02-05T02:30:32.940Z,22.13
2019-02-05T02:33:02.009Z,21.15
2019-02-05T02:35:31.229Z,22.07
2019-02-05T02:38:00.472Z,21.77
2019-02-05T02:42:55.443Z,22.48
2019-02-05T02:45:24.343Z,22.10
2019-02-05T02:47:53.255Z,22.62
2019-02-05T02:50:22.223Z,21.30
2019-02-05T02:52:51.545Z,22.00
2019-02-05T02:55:20.690Z,22.48
2019-02-05T02:57:49.763Z,22.73
2019-02-05T03:00:19.942Z,22.62
2019-02-05T03:02:49.127Z,22.45
2019-02-05T03:05:19.905Z,22.90
2019-02-05T03:07:49.253Z,24.12
2019-02-05T03:10:21.145Z,23.45
2019-02-05T03:12:50.446Z,22.77
2019-02-05T03:15:19.720Z,23.60
2019-02-05T03:17:49.041Z,24.82
2019-02-05T03:20:18.728Z,24.67
2019-02-05T03:22:47.584Z,24.10
2019-02-05T03:25:18.780Z,24.47
2019-02-05T03:27:48.807Z,23.95
2019-02-05T03:30:19.288Z,23.85
2019-02-05T03:32:48.688Z,24.40
2019-02-05T03:35:19.320Z,24.27
2019-02-05T03:37:48.329Z,24.27
2019-02-05T03:41:05.334Z,24.30
2019-02-05T03:43:36.813Z,22.73
2019-02-05T03:46:07.753Z,22.20
2019-02-05T03:48:37.404Z,22.67
2019-02-05T03:51:49.102Z,23.18
2019-02-05T03:54:44.109Z,22.77
2019-02-05T03:57:49.861Z,22.67
2019-02-05T04:00:57.338Z,22.98
2019-02-05T04:03:41.576Z,22.65
2019-02-05T04:06:41.158Z,23.67
2019-02-05T04:09:34.133Z,23.73
2019-02-05T04:12:42.376Z,24.45
2019-02-05T04:15:34.266Z,24.02
2019-02-05T04:18:40.074Z,24.45
2019-02-05T04:21:39.012Z,24.20
2019-02-05T04:24:36.190Z,23.77
2019-02-05T04:27:26.565Z,22.95
2019-02-05T04:30:22.275Z,23.40
2019-02-05T04:33:17.785Z,23.15
2019-02-05T04:36:31.493Z,22.77
2019-02-05T04:39:29.560Z,23.27
2019-02-05T04:42:34.606Z,22.27
2019-02-05T04:45:33.778Z,23.95
2019-02-05T04:48:36.253Z,22.70
2019-02-05T04:51:38.500Z,22.42
2019-02-05T04:54:35.700Z,22.47
2019-02-05T04:57:27.846Z,22.48
2019-02-05T05:00:24.359Z,22.33
2019-02-05T05:03:33.862Z,22.87
2019-02-05T05:06:17.808Z,22.60
2019-02-05T05:09:18.574Z,22.00
2019-02-05T05:11:47.866Z,24.23
2019-02-05T05:14:17.125Z,25.00
2019-02-05T05:16:46.268Z,25.33
2019-02-05T05:19:15.196Z,25.20
2019-02-05T05:21:44.443Z,26.25
2019-02-05T05:24:13.807Z,25.80
2019-02-05T05:26:42.830Z,26.27
2019-02-05T05:29:11.829Z,26.62
2019-02-05T05:31:44.516Z,26.12
2019-02-05T05:34:13.712Z,26.07
2019-02-05T05:36:51.431Z,24.12
2019-02-05T05:39:21.162Z,23.52
2019-02-05T05:41:50.420Z,23.73
2019-02-05T05:44:19.582Z,23.95
2019-02-05T05:46:48.688Z,23.83
2019-02-05T05:49:17.859Z,24.72
2019-02-05T05:51:47.146Z,24.00
2019-02-05T05:54:16.689Z,25.25
2019-02-05T05:56:45.810Z,25.12
2019-02-05T05:59:14.793Z,24.27
2019-02-05T06:01:44.404Z,25.17
2019-02-05T06:04:14.677Z,24.65
2019-02-05T06:06:43.738Z,23.80
2019-02-05T06:09:13.041Z,24.98
2019-02-05T06:11:42.218Z,24.83
2019-02-05T06:14:11.085Z,24.52
2019-02-05T06:16:40.100Z,24.60
2019-02-05T06:19:09.324Z,24.57
2019-02-05T06:21:38.114Z,23.50
2019-02-05T06:24:07.138Z,24.00
2019-02-05T06:26:36.117Z,24.12
2019-02-05T06:29:05.083Z,24.45
2019-02-05T06:31:34.443Z,24.55
2019-02-05T06:34:03.745Z,24.32
2019-02-05T06:36:32.685Z,24.92
2019-02-05T06:39:02.079Z,25.08
2019-02-05T06:41:30.929Z,25.55
2019-02-05T06:43:59.716Z,24.77
2019-02-05T06:46:28.650Z,26.05
2019-02-05T06:48:57.509Z,25.40
2019-02-05T06:51:26.388Z,25.72
2019-02-05T06:53:55.617Z,26.27
2019-02-05T06:56:24.770Z,25.60
2019-02-05T06:58:54.000Z,25.95
2019-02-05T07:01:23.174Z,26.50
2019-02-05T07:03:52.689Z,26.42
2019-02-05T07:06:21.813Z,26.83
2019-02-05T07:08:50.743Z,26.48
2019-02-05T07:11:20.022Z,26.07
2019-02-05T07:13:48.914Z,25.77
2019-02-05T07:16:18.150Z,25.57
2019-02-05T07:18:47.796Z,24.82
2019-02-05T07:21:17.095Z,25.82
2019-02-05T07:23:46.048Z,26.80
2019-02-05T07:26:14.900Z,26.48
2019-02-05T07:28:43.857Z,26.33
2019-02-05T07:31:12.876Z,26.35
2019-02-05T07:33:41.761Z,26.37
2019-02-05T07:36:10.715Z,24.95
2019-02-05T07:38:39.697Z,27.20
2019-02-05T07:41:08.665Z,26.33
2019-02-05T07:43:37.561Z,25.90
2019-02-05T07:46:06.885Z,26.70
2019-02-05T07:48:35.831Z,26.65
2019-02-05T07:51:04.758Z,25.90
2019-02-05T07:53:33.535Z,26.35
2019-02-05T07:56:02.881Z,26.07
2019-02-05T07:58:31.683Z,26.55
2019-02-05T08:01:00.542Z,25.62
2019-02-05T08:03:29.798Z,25.97
2019-02-05T08:05:59.228Z,26.85
2019-02-05T08:08:28.195Z,26.02
2019-02-05T08:10:57.264Z,26.33
2019-02-05T08:13:26.149Z,26.23
2019-02-05T08:15:55.226Z,25.68
2019-02-05T08:18:24.168Z,26.37
2019-02-05T08:20:53.356Z,26.50
2019-02-05T08:23:22.577Z,26.52
2019-02-05T08:25:51.672Z,25.17
2019-02-05T08:28:20.923Z,25.07
2019-02-05T08:30:49.780Z,25.02
2019-02-05T08:33:18.937Z,25.85
2019-02-05T08:35:48.194Z,25.08
2019-02-05T08:38:17.214Z,25.32
2019-02-05T08:40:46.777Z,25.72
2019-02-05T08:43:15.882Z,26.80
2019-02-05T08:45:55.978Z,26.68
2019-02-05T08:48:15.575Z,25.97
2019-02-05T08:50:45.086Z,27.42
2019-02-05T08:53:14.477Z,28.05
2019-02-05T08:55:43.582Z,27.55
2019-02-05T08:58:12.852Z,27.58
2019-02-05T09:00:42.529Z,27.58
2019-02-05T09:03:12.233Z,27.95
2019-02-05T09:05:41.512Z,27.75
2019-02-05T09:08:10.508Z,29.07
2019-02-05T09:10:39.786Z,29.30
2019-02-05T09:13:09.157Z,29.18
2019-02-05T09:15:38.380Z,29.05
2019-02-05T09:18:07.690Z,29.60
2019-02-05T09:20:36.887Z,28.20
2019-02-05T09:23:06.387Z,29.10
2019-02-05T09:25:35.597Z,27.87
2019-02-05T09:28:04.542Z,29.18
2019-02-05T09:30:34.646Z,28.73
2019-02-05T09:33:06.750Z,28.40
2019-02-05T09:35:35.646Z,28.20
2019-02-05T09:38:04.621Z,29.57
2019-02-05T09:40:34.263Z,28.23
2019-02-05T09:43:03.186Z,30.60
2019-02-05T09:45:32.640Z,28.60
2019-02-05T09:48:02.256Z,28.12
2019-02-05T09:50:43.775Z,28.50
2019-02-05T09:53:02.101Z,28.52
2019-02-05T09:55:31.017Z,28.65
2019-02-05T09:57:59.803Z,28.47
2019-02-05T10:00:31.949Z,29.15
2019-02-05T10:03:01.199Z,28.83
2019-02-05T10:05:30.985Z,27.98
2019-02-05T10:08:00.268Z,28.38
2019-02-05T10:10:29.573Z,28.42
2019-02-05T10:12:58.733Z,27.95
2019-02-05T10:15:30.618Z,27.95
2019-02-05T10:18:00.027Z,29.32
2019-02-05T10:20:29.385Z,27.37
2019-02-05T10:23:03.124Z,27.52
2019-02-05T10:25:32.097Z,28.52
2019-02-05T10:28:01.126Z,30.30
2019-02-05T10:30:32.193Z,31.37
2019-02-05T10:33:03.369Z,32.53
2019-02-05T10:35:32.461Z,32.98
2019-02-05T10:38:07.013Z,32.45
2019-02-05T10:40:36.980Z,27.45
2019-02-05T10:43:07.381Z,26.70
2019-02-05T10:45:36.773Z,32.50
2019-02-05T10:48:08.160Z,37.80
2019-02-05T10:50:37.269Z,30.82
2019-02-05T10:53:06.564Z,29.52
2019-02-05T10:55:35.584Z,29.27
2019-02-05T10:58:05.309Z,29.07
2019-02-05T11:00:34.270Z,28.43
2019-02-05T11:03:04.595Z,27.05
2019-02-05T11:05:34.325Z,26.55
2019-02-05T11:08:03.256Z,25.52
2019-02-05T11:10:32.313Z,26.52
2019-02-05T11:13:01.285Z,26.50
2019-02-05T11:15:32.074Z,25.00
2019-02-05T11:18:01.601Z,25.57
2019-02-05T11:20:31.111Z,25.30
2019-02-05T11:23:00.689Z,25.02
2019-02-05T11:25:29.779Z,25.25
2019-02-05T11:27:58.806Z,24.98
2019-02-05T11:30:30.596Z,25.15
2019-02-05T11:32:59.472Z,25.35
2019-02-05T11:35:28.964Z,26.07
2019-02-05T11:37:57.916Z,25.82
2019-02-05T11:40:30.344Z,24.90
2019-02-05T11:42:59.142Z,25.27
2019-02-05T11:45:28.726Z,24.92
2019-02-05T11:47:58.918Z,26.10
2019-02-05T11:50:28.172Z,26.00
2019-02-05T11:52:57.477Z,25.50
2019-02-05T11:55:27.404Z,25.17
2019-02-05T11:57:56.354Z,25.60
2019-02-05T12:00:50.613Z,26.35
2019-02-05T12:03:19.932Z,25.48
2019-02-05T12:05:49.177Z,26.02
2019-02-05T12:08:18.805Z,25.73
2019-02-05T12:10:47.912Z,25.17
2019-02-05T12:13:16.795Z,24.20
2019-02-05T12:15:45.758Z,25.00
2019-02-05T12:18:14.720Z,25.60
2019-02-05T12:20:44.321Z,26.02
2019-02-05T12:23:13.751Z,25.23
2019-02-05T12:25:42.687Z,25.02
2019-02-05T12:28:11.557Z,25.12
2019-02-05T12:30:44.909Z,26.37
2019-02-05T12:33:11.589Z,26.07
2019-02-05T12:35:40.502Z,25.90
2019-02-05T12:38:09.848Z,26.50
2019-02-05T12:40:39.017Z,24.80
2019-02-05T12:43:07.984Z,25.92
2019-02-05T12:45:37.173Z,25.82
2019-02-05T12:48:06.418Z,25.85
2019-02-05T12:50:36.048Z,24.65
2019-02-05T12:53:05.553Z,25.35
2019-02-05T12:55:34.495Z,25.62
2019-02-05T12:58:03.349Z,24.07
2019-02-05T13:00:41.023Z,23.52
2019-02-05T13:03:10.903Z,22.77
2019-02-05T13:05:40.515Z,23.70
2019-02-05T13:08:09.853Z,23.27
2019-02-05T13:10:41.126Z,22.60
2019-02-05T13:13:10.244Z,24.45
2019-02-05T13:15:39.208Z,23.18
2019-02-05T13:18:08.750Z,23.40
2019-02-05T13:20:38.822Z,22.15
2019-02-05T13:23:08.721Z,21.60
2019-02-05T13:25:37.764Z,22.55
2019-02-05T13:28:08.395Z,22.85
2019-02-05T13:30:37.545Z,22.47
2019-02-05T13:33:07.548Z,22.52
2019-02-05T13:35:55.948Z,23.52
2019-02-05T13:38:24.721Z,23.22
2019-02-05T13:40:53.850Z,22.82
2019-02-05T13:43:23.059Z,24.05
2019-02-05T13:45:52.744Z,23.30
2019-02-05T13:48:21.732Z,21.23
2019-02-05T13:50:50.660Z,21.85
2019-02-05T13:53:19.581Z,21.62
2019-02-05T13:55:48.577Z,22.52
2019-02-05T13:58:17.417Z,21.85
2019-02-05T14:00:51.435Z,21.25
2019-02-05T14:03:20.626Z,22.30
2019-02-05T14:05:50.013Z,23.20
2019-02-05T14:08:18.973Z,22.00
2019-02-05T14:10:48.463Z,22.77
2019-02-05T14:13:18.038Z,22.62
2019-02-05T14:15:52.684Z,22.60
2019-02-05T14:18:22.916Z,22.20
2019-02-05T14:20:52.611Z,21.27
2019-02-05T14:23:21.721Z,21.00
2019-02-05T14:25:50.593Z,21.97
2019-02-05T14:28:19.552Z,21.48
2019-02-05T14:30:54.417Z,21.97
2019-02-05T14:33:24.485Z,21.33
2019-02-05T14:35:53.477Z,21.45
2019-02-05T14:38:22.321Z,22.30
2019-02-05T14:40:51.270Z,21.87
2019-02-05T14:43:20.473Z,22.10
2019-02-05T14:45:49.669Z,21.77
2019-02-05T14:48:19.751Z,22.42
2019-02-05T14:50:49.008Z,21.90
2019-02-05T14:53:18.167Z,21.57
2019-02-05T14:55:47.884Z,21.27
2019-02-05T14:58:18.040Z,20.97
2019-02-05T15:00:47.230Z,21.10
2019-02-05T15:03:16.253Z,21.37
2019-02-05T15:05:46.686Z,22.13
2019-02-05T15:08:17.580Z,21.42
2019-02-05T15:10:46.880Z,21.17
2019-02-05T15:13:16.290Z,21.87
2019-02-05T15:15:45.326Z,22.22
2019-02-05T15:18:24.468Z,22.40
2019-02-05T15:20:53.574Z,22.73
2019-02-05T15:23:22.713Z,21.33
2019-02-05T15:25:52.040Z,22.27
2019-02-05T15:28:20.901Z,21.00
2019-02-05T15:30:49.889Z,21.03
2019-02-05T15:33:42.429Z,21.30
2019-02-05T15:36:31.991Z,22.43
2019-02-05T15:39:01.029Z,22.52
2019-02-05T15:41:29.812Z,21.73
2019-02-05T15:44:00.724Z,22.67
2019-02-05T15:46:29.504Z,23.07
2019-02-05T15:48:58.282Z,23.27
2019-02-05T15:51:27.161Z,22.30
2019-02-05T15:53:56.117Z,22.85
2019-02-05T15:56:25.192Z,22.98
2019-02-05T15:58:54.546Z,22.80
2019-02-05T16:01:23.753Z,22.00
2019-02-05T16:03:52.654Z,21.57
2019-02-05T16:06:22.238Z,22.58
2019-02-05T16:08:51.317Z,22.27
2019-02-05T16:11:20.513Z,22.42
2019-02-05T16:13:49.479Z,22.22
2019-02-05T16:16:18.752Z,21.82
2019-02-05T16:18:47.636Z,22.10
2019-02-05T16:21:16.520Z,22.37
2019-02-05T16:23:45.413Z,21.73
2019-02-05T16:26:14.798Z,22.10
2019-02-05T16:28:43.986Z,22.27
2019-02-05T16:31:13.126Z,22.52
2019-02-05T16:33:42.207Z,22.50
2019-02-05T16:36:11.487Z,22.40
2019-02-05T16:38:40.741Z,24.45
2019-02-05T16:41:12.038Z,23.90
2019-02-05T16:43:40.893Z,23.45
2019-02-05T16:46:09.680Z,24.23
2019-02-05T16:48:39.298Z,25.08
2019-02-05T16:51:11.132Z,24.75
2019-02-05T16:53:39.958Z,24.90
2019-02-05T16:56:08.846Z,24.37
2019-02-05T16:58:38.055Z,24.12
2019-02-05T17:01:07.018Z,24.77
2019-02-05T17:03:36.427Z,24.67
2019-02-05T17:06:06.213Z,25.43
2019-02-05T17:08:35.449Z,23.70
2019-02-05T17:11:04.741Z,24.17
2019-02-05T17:13:33.898Z,24.55
2019-02-05T17:16:03.244Z,24.85
2019-02-05T17:18:32.777Z,24.30
2019-02-05T17:21:02.636Z,24.80
2019-02-05T17:23:32.061Z,23.80
2019-02-05T17:26:01.158Z,24.07
2019-02-05T17:28:30.068Z,24.23
2019-02-05T17:30:59.240Z,25.05
2019-02-05T17:33:28.367Z,25.37
2019-02-05T17:35:57.953Z,25.52
2019-02-05T17:38:27.251Z,24.35
2019-02-05T17:40:56.217Z,25.17
2019-02-05T17:43:25.330Z,26.12
2019-02-05T17:45:54.534Z,25.52
2019-02-05T17:48:24.139Z,25.57
2019-02-05T17:50:52.944Z,25.23
2019-02-05T17:53:22.336Z,24.87
2019-02-05T17:55:51.637Z,24.52
2019-02-05T17:58:20.662Z,25.20
2019-02-05T18:00:52.234Z,23.97
2019-02-05T18:03:21.905Z,23.85
2019-02-05T18:05:50.981Z,24.12
2019-02-05T18:08:20.293Z,23.25
2019-02-05T18:10:49.543Z,25.45
2019-02-05T18:13:18.410Z,25.15
2019-02-05T18:15:47.420Z,23.85
2019-02-05T18:18:16.917Z,23.80
2019-02-05T18:20:46.080Z,23.37
2019-02-05T18:23:15.209Z,22.82
2019-02-05T18:25:44.254Z,22.50
2019-02-05T18:28:13.310Z,23.42
2019-02-05T18:30:42.467Z,23.05
2019-02-05T18:33:12.046Z,22.98
2019-02-05T18:35:41.280Z,23.90
2019-02-05T18:38:12.794Z,23.27
2019-02-05T18:40:42.239Z,24.63
2019-02-05T18:43:11.603Z,22.55
2019-02-05T18:45:40.504Z,21.65
2019-02-05T18:48:10.097Z,22.20
2019-02-05T18:50:39.083Z,22.02
2019-02-05T18:53:08.005Z,22.07
2019-02-05T18:55:37.025Z,24.23
2019-02-05T18:58:09.392Z,23.18
2019-02-05T19:00:38.927Z,24.18
2019-02-05T19:03:15.382Z,22.98
2019-02-05T19:05:39.435Z,22.03
2019-02-05T19:08:09.071Z,21.27
2019-02-05T19:10:38.471Z,20.73
2019-02-05T19:13:07.619Z,20.97
2019-02-05T19:15:37.097Z,21.02
2019-02-05T19:18:25.549Z,21.20
2019-02-05T19:20:54.746Z,20.97
2019-02-05T19:23:23.605Z,20.10
2019-02-05T19:25:58.030Z,19.62
2019-02-05T19:28:31.913Z,19.52
2019-02-05T19:31:20.278Z,19.32
2019-02-05T19:33:49.044Z,19.75
2019-02-05T19:36:18.203Z,19.77
2019-02-05T19:38:47.652Z,22.67
2019-02-05T19:41:16.576Z,25.02
2019-02-05T19:43:45.360Z,24.12
2019-02-05T19:46:36.384Z,20.68
2019-02-05T19:49:21.869Z,22.20
2019-02-05T19:51:50.660Z,21.68
2019-02-05T19:54:39.117Z,22.90
2019-02-05T19:57:08.028Z,27.45
2019-02-05T19:59:37.264Z,26.90
2019-02-05T20:02:06.996Z,25.30
2019-02-05T20:04:35.978Z,24.50
2019-02-05T20:07:04.908Z,21.80
2019-02-05T20:09:33.802Z,25.48
2019-02-05T20:12:02.672Z,24.85
2019-02-05T20:14:31.470Z,25.92
2019-02-05T20:17:00.445Z,27.17
2019-02-05T20:19:29.341Z,25.67
2019-02-05T20:21:58.162Z,26.17
2019-02-05T20:24:27.079Z,26.70
2019-02-05T20:26:55.973Z,25.63
2019-02-05T20:29:24.880Z,26.43
2019-02-05T20:31:53.910Z,25.83
2019-02-05T20:34:23.135Z,25.35
2019-02-05T20:36:52.742Z,26.87
2019-02-05T20:39:21.723Z,26.80
2019-02-05T20:41:52.661Z,29.02
2019-02-05T20:44:21.696Z,27.82
2019-02-05T20:46:50.465Z,28.15
2019-02-05T20:49:19.497Z,27.30
2019-02-05T20:51:48.520Z,25.15
2019-02-05T20:54:18.737Z,25.72
2019-02-05T20:56:47.877Z,24.85
2019-02-05T20:59:16.848Z,25.03
2019-02-05T21:01:45.705Z,23.80
2019-02-05T21:04:14.517Z,21.03
2019-02-05T21:06:43.449Z,22.00
2019-02-05T21:09:20.255Z,23.20
2019-02-05T21:11:49.737Z,22.07
2019-02-05T21:14:19.114Z,22.58
2019-02-05T21:16:48.621Z,23.73
2019-02-05T21:19:17.930Z,29.98
2019-02-05T21:21:47.073Z,23.90
2019-02-05T21:24:15.997Z,23.45
2019-02-05T21:26:45.214Z,23.77
2019-02-05T21:29:14.756Z,24.12
2019-02-05T21:31:44.433Z,24.60
2019-02-05T21:34:15.945Z,24.27
2019-02-05T21:36:44.656Z,24.37
2019-02-05T21:39:13.582Z,22.22
2019-02-05T21:41:42.790Z,23.67
2019-02-05T21:44:12.693Z,22.75
2019-02-05T21:46:41.872Z,24.10
2019-02-05T21:49:11.474Z,22.70
2019-02-05T21:51:42.880Z,23.67
2019-02-05T21:54:10.995Z,23.12
2019-02-05T21:56:39.838Z,23.22
2019-02-05T21:59:08.973Z,25.37
2019-02-05T22:01:38.473Z,25.52
2019-02-05T22:04:10.065Z,25.50
2019-02-05T22:06:38.695Z,24.90
2019-02-05T22:09:11.343Z,25.02
2019-02-05T22:11:40.982Z,24.55
2019-02-05T22:14:10.374Z,24.27
2019-02-05T22:16:39.151Z,24.72
2019-02-05T22:19:08.712Z,24.75
2019-02-05T22:21:38.005Z,24.52
2019-02-05T22:24:06.940Z,24.92
2019-02-05T22:26:36.140Z,24.33
2019-02-05T22:29:05.870Z,23.20
2019-02-05T22:31:34.975Z,23.55
2019-02-05T22:34:23.070Z,23.10
2019-02-05T22:36:51.866Z,24.12
2019-02-05T22:39:20.921Z,23.70
2019-02-05T22:41:50.164Z,24.60
2019-02-05T22:44:18.930Z,25.43
2019-02-05T22:46:48.413Z,25.08
2019-02-05T22:49:17.252Z,25.55
2019-02-05T22:51:46.415Z,25.10
2019-02-05T22:54:15.155Z,26.23
2019-02-05T22:56:44.320Z,25.80
2019-02-05T22:59:13.793Z,26.62
2019-02-05T23:01:55.554Z,26.62
2019-02-05T23:05:20.589Z,25.52
2019-02-05T23:07:50.802Z,26.33
2019-02-05T23:10:50.312Z,24.20
2019-02-05T23:13:20.738Z,24.10
2019-02-05T23:15:51.258Z,25.12
2019-02-05T23:18:21.019Z,23.55
2019-02-05T23:20:49.904Z,24.00
2019-02-05T23:23:18.809Z,23.55
2019-02-05T23:25:48.054Z,22.83
2019-02-05T23:28:17.401Z,22.15
2019-02-05T23:30:46.528Z,22.70
2019-02-05T23:33:16.109Z,21.85
2019-02-05T23:35:45.878Z,22.77
2019-02-05T23:38:14.968Z,22.90
2019-02-05T23:40:44.269Z,22.52
2019-02-05T23:43:13.262Z,23.52
2019-02-05T23:45:42.666Z,22.33
2019-02-05T23:48:11.629Z,25.35
2019-02-05T23:50:40.875Z,23.50
2019-02-05T23:53:10.045Z,22.25
2019-02-05T23:55:39.176Z,22.25
2019-02-05T23:58:08.214Z,22.75
